createdAt,value
2022-10-19T00:00:20.205Z,103019.59
2022-10-19T00:01:00.381Z,103026.31
2022-10-19T00:01:31.987Z,103031.75
2022-10-19T00:02:04.099Z,103013.66
2022-10-19T00:02:38.693Z,103025.00
2022-10-19T00:03:10.306Z,103016.66
2022-10-19T00:03:45.117Z,103018.88
2022-10-19T00:04:16.674Z,103018.88
2022-10-19T00:04:48.403Z,103017.28
2022-10-19T00:05:19.858Z,103021.91
2022-10-19T00:05:51.309Z,103027.03
2022-10-19T00:06:28.020Z,103019.47
2022-10-19T00:06:59.604Z,103025.72
2022-10-19T00:07:31.353Z,103018.97
2022-10-19T00:08:02.958Z,103033.25
2022-10-19T00:08:34.379Z,103025.50
2022-10-19T00:09:15.123Z,103029.81
2022-10-19T00:09:46.829Z,103030.34
2022-10-19T00:10:18.525Z,103035.25
2022-10-19T00:10:50.147Z,103029.31
2022-10-19T00:11:24.417Z,103033.63
2022-10-19T00:11:55.972Z,103023.66
2022-10-19T00:12:27.397Z,103029.31
2022-10-19T00:13:02.022Z,103027.47
2022-10-19T00:13:34.075Z,103029.91
2022-10-19T00:14:06.917Z,103029.41
2022-10-19T00:14:38.581Z,103020.97
2022-10-19T00:15:10.615Z,103028.59
2022-10-19T00:15:42.820Z,103027.47
2022-10-19T00:16:15.692Z,103029.09
2022-10-19T00:16:49.404Z,103030.72
2022-10-19T00:17:20.754Z,103032.09
2022-10-19T00:17:52.337Z,103031.88
2022-10-19T00:18:23.969Z,103033.72
2022-10-19T00:18:59.833Z,103025.06
2022-10-19T00:19:31.657Z,103021.56
2022-10-19T00:20:03.418Z,103032.09
2022-10-19T00:20:36.609Z,103021.84
2022-10-19T00:21:10.353Z,103024.56
2022-10-19T00:21:42.260Z,103014.34
2022-10-19T00:22:14.233Z,103022.94
2022-10-19T00:22:49.693Z,103025.66
2022-10-19T00:23:22.875Z,103020.53
2022-10-19T00:23:54.337Z,103011.41
2022-10-19T00:24:25.877Z,103020.06
2022-10-19T00:24:57.873Z,103014.41
2022-10-19T00:25:29.489Z,103019.25
2022-10-19T00:26:01.179Z,103011.19
2022-10-19T00:26:33.176Z,103012.50
2022-10-19T00:27:04.804Z,103017.13
2022-10-19T00:27:37.317Z,103017.13
2022-10-19T00:28:08.738Z,103006.06
2022-10-19T00:28:40.420Z,103013.91
2022-10-19T00:29:13.946Z,103005.56
2022-10-19T00:29:45.697Z,103018.00
2022-10-19T00:30:17.640Z,103016.63
2022-10-19T00:31:26.334Z,103010.16
2022-10-19T00:31:57.941Z,103013.19
2022-10-19T00:32:29.489Z,103015.59
2022-10-19T00:33:00.994Z,103013.41
2022-10-19T00:33:32.923Z,103018.81
2022-10-19T00:34:04.372Z,103012.88
2022-10-19T00:34:35.833Z,103023.44
2022-10-19T00:35:07.793Z,103015.59
2022-10-19T00:35:42.028Z,103012.66
2022-10-19T00:36:35.410Z,103023.22
2022-10-19T00:37:07.083Z,103015.38
2022-10-19T00:37:38.727Z,103010.25
2022-10-19T00:38:10.605Z,103012.44
2022-10-19T00:38:44.804Z,103009.75
2022-10-19T00:39:17.730Z,103021.09
2022-10-19T00:39:49.132Z,103015.47
2022-10-19T00:40:22.947Z,103014.69
2022-10-19T00:40:54.666Z,103018.19
2022-10-19T00:41:29.877Z,103015.78
2022-10-19T00:42:01.445Z,103014.97
2022-10-19T00:42:33.275Z,103021.72
2022-10-19T00:43:12.796Z,103015.25
2022-10-19T00:44:16.494Z,103023.28
2022-10-19T00:44:47.886Z,103022.19
2022-10-19T00:45:19.400Z,103016.38
2022-10-19T00:45:51.176Z,103020.09
2022-10-19T00:46:22.987Z,103025.81
2022-10-19T00:46:59.457Z,103010.94
2022-10-19T00:47:31.910Z,103013.16
2022-10-19T00:48:03.517Z,103018.78
2022-10-19T00:48:35.146Z,103013.16
2022-10-19T00:49:12.824Z,103020.41
2022-10-19T00:49:46.700Z,103011.53
2022-10-19T00:50:18.646Z,103015.34
2022-10-19T00:50:54.150Z,103016.94
2022-10-19T00:51:28.131Z,103014.84
2022-10-19T00:52:06.013Z,103014.25
2022-10-19T00:52:37.543Z,103012.41
2022-10-19T00:53:09.770Z,103011.31
2022-10-19T00:53:41.716Z,103015.94
2022-10-19T00:54:14.354Z,103019.44
2022-10-19T00:54:47.325Z,103016.44
2022-10-19T00:55:19.132Z,103022.16
2022-10-19T00:55:51.031Z,103011.09
2022-10-19T00:56:23.435Z,103019.44
2022-10-19T00:56:57.632Z,103014.59
2022-10-19T00:57:31.767Z,103014.31
2022-10-19T00:58:03.667Z,103015.13
2022-10-19T00:58:35.715Z,103012.19
2022-10-19T00:59:08.977Z,103013.28
2022-10-19T00:59:43.237Z,103017.31
2022-10-19T01:00:14.759Z,103012.47
2022-10-19T01:00:46.551Z,103023.53
2022-10-19T01:01:20.647Z,103009.28
2022-10-19T01:01:53.475Z,103009.28
2022-10-19T01:02:25.236Z,103015.72
2022-10-19T01:02:57.324Z,103011.19
2022-10-19T01:03:29.046Z,103016.28
2022-10-19T01:04:01.203Z,103014.19
2022-10-19T01:04:35.596Z,103010.97
2022-10-19T01:05:08.367Z,103010.41
2022-10-19T01:05:40.836Z,103011.28
2022-10-19T01:06:18.288Z,103004.25
2022-10-19T01:07:26.868Z,103009.16
2022-10-19T01:07:58.657Z,103009.66
2022-10-19T01:08:30.366Z,103002.41
2022-10-19T01:09:01.861Z,103010.75
2022-10-19T01:09:33.592Z,103009.94
2022-10-19T01:10:05.881Z,103009.16
2022-10-19T01:11:05.697Z,103008.34
2022-10-19T01:12:00.692Z,103017.28
2022-10-19T01:12:47.831Z,103002.47
2022-10-19T01:13:38.284Z,103010.03
2022-10-19T01:14:28.640Z,103011.94
2022-10-19T01:15:31.184Z,103013.03
2022-10-19T01:16:12.012Z,103010.59
2022-10-19T01:16:53.997Z,103011.22
2022-10-19T01:17:50.016Z,103007.38
2022-10-19T01:18:39.161Z,103012.03
2022-10-19T01:19:54.873Z,103006.91
2022-10-19T01:20:56.779Z,103008.00
2022-10-19T01:21:51.486Z,103005.56
2022-10-19T01:23:01.768Z,102997.22
2022-10-19T01:23:55.871Z,103004.84
2022-10-19T01:24:50.448Z,103004.63
2022-10-19T01:25:33.429Z,102994.38
2022-10-19T01:26:43.812Z,102997.06
2022-10-19T01:27:33.407Z,102994.66
2022-10-19T01:28:54.803Z,102995.75
2022-10-19T01:30:08.107Z,102992.84
2022-10-19T01:30:52.968Z,102995.03
2022-10-19T01:31:29.595Z,102992.63
2022-10-19T01:32:11.375Z,102993.44
2022-10-19T01:32:53.136Z,102994.22
2022-10-19T01:33:36.824Z,102992.63
2022-10-19T01:34:15.346Z,102995.59
2022-10-19T01:35:07.486Z,102981.31
2022-10-19T01:35:48.528Z,102997.50
2022-10-19T01:36:27.965Z,102997.78
2022-10-19T01:37:08.184Z,102990.75
2022-10-19T01:37:54.177Z,102991.03
2022-10-19T01:38:32.106Z,102993.53
2022-10-19T01:39:13.013Z,102985.22
2022-10-19T01:39:57.406Z,102987.41
2022-10-19T01:40:42.703Z,102978.47
2022-10-19T01:41:21.081Z,102993.31
2022-10-19T01:42:07.061Z,102982.56
2022-10-19T01:42:56.273Z,102987.09
2022-10-19T01:43:52.594Z,102986.59
2022-10-19T01:45:02.101Z,102982.56
2022-10-19T01:45:50.381Z,102981.00
2022-10-19T01:46:32.469Z,102975.09
2022-10-19T01:47:08.895Z,102978.06
2022-10-19T01:47:57.567Z,102981.31
2022-10-19T01:48:34.630Z,102981.59
2022-10-19T01:49:32.437Z,102982.97
2022-10-19T01:50:14.244Z,102975.13
2022-10-19T01:51:02.634Z,102984.59
2022-10-19T01:51:38.992Z,102989.19
2022-10-19T01:52:14.911Z,102980.88
2022-10-19T01:52:49.751Z,102985.19
2022-10-19T01:53:22.832Z,102987.09
2022-10-19T01:53:58.820Z,102995.22
2022-10-19T01:54:36.239Z,102976.31
2022-10-19T01:55:11.272Z,102985.78
2022-10-19T01:55:45.063Z,102987.91
2022-10-19T01:56:19.995Z,102982.53
2022-10-19T01:56:58.457Z,102986.34
2022-10-19T01:57:36.860Z,102979.31
2022-10-19T01:58:13.236Z,102977.13
2022-10-19T01:58:46.506Z,102979.31
2022-10-19T01:59:20.892Z,102976.91
2022-10-19T01:59:54.598Z,102984.44
2022-10-19T02:00:27.541Z,102988.75
2022-10-19T02:01:04.001Z,102980.69
2022-10-19T02:01:38.530Z,102977.94
2022-10-19T02:02:12.120Z,102982.09
2022-10-19T02:02:47.923Z,102983.19
2022-10-19T02:03:20.040Z,102984.78
2022-10-19T02:03:53.695Z,102985.88
2022-10-19T02:04:26.416Z,102980.53
2022-10-19T02:04:58.685Z,102985.13
2022-10-19T02:05:32.958Z,102986.44
2022-10-19T02:06:07.463Z,102982.13
2022-10-19T02:06:40.988Z,102986.25
2022-10-19T02:07:12.697Z,102989.25
2022-10-19T02:07:48.821Z,102982.22
2022-10-19T02:08:36.238Z,102982.50
2022-10-19T02:09:07.826Z,102990.06
2022-10-19T02:09:39.298Z,102985.50
2022-10-19T02:10:15.896Z,102987.34
2022-10-19T02:10:48.069Z,102985.22
2022-10-19T02:11:21.921Z,102986.03
2022-10-19T02:11:57.493Z,102980.09
2022-10-19T02:12:31.772Z,102986.53
2022-10-19T02:13:04.815Z,102986.03
2022-10-19T02:13:39.767Z,102982.78
2022-10-19T02:14:14.723Z,102984.19
2022-10-19T02:14:50.196Z,102983.38
2022-10-19T02:15:26.019Z,102984.97
2022-10-19T02:16:01.376Z,102994.94
2022-10-19T02:16:38.022Z,102982.78
2022-10-19T02:17:13.929Z,102984.97
2022-10-19T02:17:52.018Z,102986.03
2022-10-19T02:18:30.988Z,102980.38
2022-10-19T02:19:05.090Z,102974.69
2022-10-19T02:19:36.680Z,102984.13
2022-10-19T02:20:08.752Z,102990.84
2022-10-19T02:20:40.177Z,102979.00
2022-10-19T02:21:12.023Z,102982.78
2022-10-19T02:21:44.682Z,102983.03
2022-10-19T02:22:16.161Z,102980.31
2022-10-19T02:22:47.623Z,102977.66
2022-10-19T02:23:22.063Z,102982.00
2022-10-19T02:23:54.280Z,102979.00
2022-10-19T02:24:25.915Z,102984.41
2022-10-19T02:24:57.716Z,102973.06
2022-10-19T02:25:29.222Z,102972.50
2022-10-19T02:26:00.856Z,102981.69
2022-10-19T02:26:33.124Z,102971.47
2022-10-19T02:27:06.812Z,102969.31
2022-10-19T02:27:44.865Z,102978.47
2022-10-19T02:28:16.627Z,102980.66
2022-10-19T02:28:48.784Z,102984.47
2022-10-19T02:29:20.698Z,102976.34
2022-10-19T02:29:54.089Z,102980.38
2022-10-19T02:30:25.832Z,102986.59
2022-10-19T02:30:58.291Z,102984.69
2022-10-19T02:31:30.188Z,102978.75
2022-10-19T02:32:05.109Z,102990.41
2022-10-19T02:32:37.022Z,102987.16
2022-10-19T02:33:08.916Z,102982.84
2022-10-19T02:33:40.695Z,102988.78
2022-10-19T02:34:13.055Z,102987.97
2022-10-19T02:34:45.019Z,102979.34
2022-10-19T02:35:19.138Z,102985.84
2022-10-19T02:35:50.824Z,102977.50
2022-10-19T02:36:22.539Z,102971.78
2022-10-19T02:36:57.095Z,102976.13
2022-10-19T02:37:28.644Z,102980.72
2022-10-19T02:38:05.258Z,102969.97
2022-10-19T02:38:36.950Z,102974.25
2022-10-19T02:39:09.204Z,102971.88
2022-10-19T02:39:40.865Z,102980.19
2022-10-19T02:40:13.002Z,102974.59
2022-10-19T02:40:51.572Z,102983.19
2022-10-19T02:41:40.358Z,102981.28
2022-10-19T02:42:11.805Z,102985.59
2022-10-19T02:42:50.050Z,102971.63
2022-10-19T02:43:26.038Z,102972.44
2022-10-19T02:44:04.511Z,102969.75
2022-10-19T02:44:47.699Z,102977.50
2022-10-19T02:45:26.068Z,102981.28
2022-10-19T02:46:04.936Z,102973.25
2022-10-19T02:46:45.221Z,102972.72
2022-10-19T02:47:25.991Z,102965.72
2022-10-19T02:48:05.165Z,102961.97
2022-10-19T02:48:39.005Z,102959.53
2022-10-19T02:49:14.144Z,102973.59
2022-10-19T02:49:47.262Z,102961.44
2022-10-19T02:50:22.273Z,102959.84
2022-10-19T02:50:53.773Z,102963.91
2022-10-19T02:51:30.317Z,102966.34
2022-10-19T02:52:05.218Z,102964.19
2022-10-19T02:52:38.086Z,102963.72
2022-10-19T02:53:09.862Z,102967.22
2022-10-19T02:53:41.346Z,102964.50
2022-10-19T02:54:12.916Z,102972.91
2022-10-19T02:54:45.322Z,102974.22
2022-10-19T02:55:17.069Z,102966.41
2022-10-19T02:55:52.142Z,102964.28
2022-10-19T02:56:23.535Z,102967.22
2022-10-19T02:56:55.797Z,102959.88
2022-10-19T02:57:27.380Z,102962.38
2022-10-19T02:57:58.977Z,102961.00
2022-10-19T02:58:30.381Z,102966.69
2022-10-19T02:59:02.849Z,102958.34
2022-10-19T02:59:34.319Z,102966.19
2022-10-19T03:00:07.562Z,102956.75
2022-10-19T03:00:39.286Z,102962.72
2022-10-19T03:01:10.880Z,102951.09
2022-10-19T03:01:42.409Z,102949.47
2022-10-19T03:02:15.071Z,102962.19
2022-10-19T03:02:46.726Z,102959.50
2022-10-19T03:03:18.146Z,102967.03
2022-10-19T03:03:49.621Z,102962.47
2022-10-19T03:04:23.457Z,102962.75
2022-10-19T03:04:54.898Z,102964.09
2022-10-19T03:05:29.734Z,102965.69
2022-10-19T03:06:01.175Z,102962.19
2022-10-19T03:06:38.592Z,102963.28
2022-10-19T03:07:11.565Z,102962.72
2022-10-19T03:07:43.381Z,102966.22
2022-10-19T03:08:15.037Z,102962.19
2022-10-19T03:08:46.607Z,102961.63
2022-10-19T03:09:18.185Z,102961.91
2022-10-19T03:09:49.997Z,102957.03
2022-10-19T03:10:24.000Z,102958.41
2022-10-19T03:10:58.776Z,102954.84
2022-10-19T03:11:30.188Z,102950.53
2022-10-19T03:12:01.570Z,102953.78
2022-10-19T03:12:33.105Z,102961.63
2022-10-19T03:13:04.514Z,102952.41
2022-10-19T03:13:35.931Z,102949.19
2022-10-19T03:14:07.425Z,102953.00
2022-10-19T03:14:39.393Z,102955.16
2022-10-19T03:15:15.779Z,102943.84
2022-10-19T03:15:48.031Z,102959.25
2022-10-19T03:16:19.524Z,102958.97
2022-10-19T03:16:50.945Z,102949.81
2022-10-19T03:17:22.600Z,102949.81
2022-10-19T03:17:54.006Z,102954.94
2022-10-19T03:18:25.422Z,102954.13
2022-10-19T03:18:56.799Z,102948.50
2022-10-19T03:19:28.454Z,102945.00
2022-10-19T03:19:59.895Z,102953.59
2022-10-19T03:20:31.325Z,102959.00
2022-10-19T03:21:13.324Z,102953.59
2022-10-19T03:21:44.775Z,102952.03
2022-10-19T03:22:16.222Z,102960.63
2022-10-19T03:22:47.913Z,102947.47
2022-10-19T03:23:19.366Z,102943.66
2022-10-19T03:23:50.920Z,102939.06
2022-10-19T03:24:22.678Z,102944.19
2022-10-19T03:24:54.093Z,102940.97
2022-10-19T03:25:26.513Z,102929.34
2022-10-19T03:26:00.300Z,102944.47
2022-10-19T03:26:32.012Z,102942.88
2022-10-19T03:27:03.588Z,102943.09
2022-10-19T03:27:35.425Z,102940.69
2022-10-19T03:28:07.293Z,102945.00
2022-10-19T03:28:38.755Z,102938.28
2022-10-19T03:29:10.280Z,102948.19
2022-10-19T03:29:41.719Z,102942.31
2022-10-19T03:30:13.253Z,102939.88
2022-10-19T03:30:46.772Z,102937.75
2022-10-19T03:31:19.807Z,102936.94
2022-10-19T03:31:51.338Z,102942.88
2022-10-19T03:32:22.815Z,102942.34
2022-10-19T03:32:54.396Z,102941.53
2022-10-19T03:33:57.417Z,102940.72
2022-10-19T03:34:28.859Z,102934.00
2022-10-19T03:35:00.432Z,102938.31
2022-10-19T03:35:31.765Z,102940.72
2022-10-19T03:36:22.692Z,102955.28
2022-10-19T03:36:54.282Z,102947.22
2022-10-19T03:37:25.766Z,102943.16
2022-10-19T03:37:57.393Z,102941.25
2022-10-19T03:38:28.729Z,102953.16
2022-10-19T03:39:05.286Z,102945.63
2022-10-19T03:39:36.745Z,102940.22
2022-10-19T03:40:08.711Z,102950.44
2022-10-19T03:40:40.437Z,102941.00
2022-10-19T03:41:13.208Z,102945.63
2022-10-19T03:41:44.760Z,102950.44
2022-10-19T03:42:16.160Z,102938.59
2022-10-19T03:42:47.582Z,102936.41
2022-10-19T03:43:18.993Z,102948.03
2022-10-19T03:43:50.536Z,102935.09
2022-10-19T03:44:22.017Z,102933.19
2022-10-19T03:44:53.476Z,102949.13
2022-10-19T03:45:25.054Z,102934.56
2022-10-19T03:45:56.512Z,102940.78
2022-10-19T03:46:28.325Z,102937.78
2022-10-19T03:46:59.697Z,102937.56
2022-10-19T03:47:31.446Z,102943.47
2022-10-19T03:48:03.153Z,102941.88
2022-10-19T03:48:34.965Z,102936.75
2022-10-19T03:49:06.914Z,102942.72
2022-10-19T03:49:40.280Z,102952.16
2022-10-19T03:50:14.085Z,102944.84
2022-10-19T03:50:45.525Z,102948.66
2022-10-19T03:51:22.347Z,102938.72
2022-10-19T03:51:53.901Z,102942.72
2022-10-19T03:52:25.346Z,102947.56
2022-10-19T03:52:56.773Z,102947.03
2022-10-19T03:53:28.304Z,102949.44
2022-10-19T03:54:02.020Z,102941.63
2022-10-19T03:54:33.520Z,102939.22
2022-10-19T03:55:05.485Z,102941.91
2022-10-19T03:55:37.054Z,102938.44
2022-10-19T03:56:12.353Z,102942.44
2022-10-19T03:56:44.254Z,102937.91
2022-10-19T03:57:15.666Z,102936.00
2022-10-19T03:57:47.136Z,102933.59
2022-10-19T03:58:18.544Z,102938.44
2022-10-19T03:58:51.347Z,102933.88
2022-10-19T03:59:24.341Z,102930.38
2022-10-19T03:59:55.825Z,102932.78
2022-10-19T04:00:27.230Z,102939.28
2022-10-19T04:00:58.771Z,102934.41
2022-10-19T04:01:33.363Z,102941.41
2022-10-19T04:02:04.843Z,102946.81
2022-10-19T04:02:36.303Z,102943.31
2022-10-19T04:03:07.715Z,102941.41
2022-10-19T04:03:39.192Z,102944.41
2022-10-19T04:04:14.125Z,102945.72
2022-10-19T04:04:45.575Z,102948.44
2022-10-19T04:05:16.956Z,102944.63
2022-10-19T04:05:48.339Z,102939.81
2022-10-19T04:06:22.726Z,102938.19
2022-10-19T04:06:54.190Z,102945.22
2022-10-19T04:07:25.612Z,102937.91
2022-10-19T04:07:57.029Z,102939.28
2022-10-19T04:08:30.827Z,102943.59
2022-10-19T04:09:03.719Z,102944.63
2022-10-19T04:09:35.147Z,102939.53
2022-10-19T04:10:07.093Z,102947.84
2022-10-19T04:10:38.401Z,102950.00
2022-10-19T04:11:13.661Z,102945.94
2022-10-19T04:11:45.068Z,102940.00
2022-10-19T04:12:16.460Z,102944.91
2022-10-19T04:12:52.891Z,102940.88
2022-10-19T04:13:25.204Z,102943.06
2022-10-19T04:13:58.268Z,102937.13
2022-10-19T04:14:33.064Z,102936.06
2022-10-19T04:15:10.670Z,102939.84
2022-10-19T04:15:42.162Z,102942.25
2022-10-19T04:16:14.181Z,102936.06
2022-10-19T04:16:45.504Z,102945.78
2022-10-19T04:17:17.037Z,102942.53
2022-10-19T04:17:48.754Z,102939.03
2022-10-19T04:18:20.210Z,102943.09
2022-10-19T04:18:51.725Z,102942.31
2022-10-19T04:19:23.234Z,102933.16
2022-10-19T04:19:54.698Z,102942.59
2022-10-19T04:20:26.370Z,102938.00
2022-10-19T04:20:59.618Z,102941.25
2022-10-19T04:21:34.488Z,102946.63
2022-10-19T04:22:05.848Z,102941.78
2022-10-19T04:22:37.264Z,102935.84
2022-10-19T04:23:08.670Z,102935.84
2022-10-19T04:23:40.671Z,102941.25
2022-10-19T04:24:14.499Z,102942.88
2022-10-19T04:24:46.151Z,102932.91
2022-10-19T04:25:17.721Z,102934.50
2022-10-19T04:25:49.244Z,102943.94
2022-10-19T04:26:20.825Z,102937.22
2022-10-19T04:26:54.806Z,102942.34
2022-10-19T04:27:26.252Z,102942.13
2022-10-19T04:27:57.964Z,102936.72
2022-10-19T04:28:30.327Z,102938.03
2022-10-19T04:29:02.197Z,102942.63
2022-10-19T04:29:33.905Z,102942.06
2022-10-19T04:30:05.851Z,102943.72
2022-10-19T04:30:37.233Z,102945.13
2022-10-19T04:31:09.866Z,102938.38
2022-10-19T04:31:41.783Z,102951.03
2022-10-19T04:32:13.375Z,102947.53
2022-10-19T04:32:44.790Z,102944.31
2022-10-19T04:33:16.292Z,102940.50
2022-10-19T04:33:47.837Z,102945.13
2022-10-19T04:34:20.027Z,102946.72
2022-10-19T04:34:51.668Z,102950.78
2022-10-19T04:35:25.248Z,102948.09
2022-10-19T04:36:05.680Z,102942.94
2022-10-19T04:36:37.973Z,102952.13
2022-10-19T04:37:09.309Z,102949.13
2022-10-19T04:37:40.714Z,102947.81
2022-10-19T04:38:12.133Z,102937.84
2022-10-19T04:38:43.700Z,102944.88
2022-10-19T04:39:15.238Z,102947.84
2022-10-19T04:39:46.729Z,102937.03
2022-10-19T04:40:18.334Z,102939.50
2022-10-19T04:40:51.221Z,102938.41
2022-10-19T04:41:23.141Z,102940.59
2022-10-19T04:41:54.503Z,102938.69
2022-10-19T04:42:26.167Z,102933.56
2022-10-19T04:42:57.826Z,102940.59
2022-10-19T04:43:29.916Z,102938.97
2022-10-19T04:44:03.697Z,102940.59
2022-10-19T04:44:35.098Z,102936.56
2022-10-19T04:45:06.816Z,102938.16
2022-10-19T04:45:38.336Z,102937.38
2022-10-19T04:46:13.012Z,102943.84
2022-10-19T04:46:44.688Z,102941.44
2022-10-19T04:47:16.217Z,102932.00
2022-10-19T04:47:47.713Z,102942.25
2022-10-19T04:48:19.077Z,102928.53
2022-10-19T04:48:50.969Z,102940.09
2022-10-19T04:49:22.523Z,102937.13
2022-10-19T04:49:53.907Z,102938.19
2022-10-19T04:50:25.899Z,102936.91
2022-10-19T04:50:57.448Z,102943.59
2022-10-19T04:51:29.105Z,102941.72
2022-10-19T04:52:00.689Z,102936.63
2022-10-19T04:52:32.084Z,102935.28
2022-10-19T04:53:03.532Z,102941.22
2022-10-19T04:53:36.357Z,102943.91
2022-10-19T04:54:07.829Z,102945.00
2022-10-19T04:54:39.246Z,102942.56
2022-10-19T04:55:10.830Z,102940.16
2022-10-19T04:55:43.015Z,102934.22
2022-10-19T04:56:20.125Z,102943.66
2022-10-19T04:56:54.215Z,102937.75
2022-10-19T04:57:25.612Z,102946.09
2022-10-19T04:57:57.005Z,102949.88
2022-10-19T04:58:28.500Z,102938.81
2022-10-19T04:59:01.102Z,102943.94
2022-10-19T04:59:32.661Z,102947.97
2022-10-19T05:00:04.534Z,102942.88
2022-10-19T05:00:37.918Z,102940.69
2022-10-19T05:01:20.795Z,102946.09
2022-10-19T05:01:52.215Z,102939.06
2022-10-19T05:02:23.645Z,102941.50
2022-10-19T05:02:55.144Z,102941.78
2022-10-19T05:03:26.621Z,102946.91
2022-10-19T05:04:01.462Z,102945.56
2022-10-19T05:04:32.850Z,102944.47
2022-10-19T05:05:04.619Z,102942.06
2022-10-19T05:05:36.273Z,102936.94
2022-10-19T05:06:08.818Z,102942.56
2022-10-19T05:06:40.294Z,102943.13
2022-10-19T05:07:11.709Z,102946.66
2022-10-19T05:07:43.439Z,102949.06
2022-10-19T05:08:14.915Z,102944.22
2022-10-19T05:08:49.187Z,102945.84
2022-10-19T05:09:20.934Z,102945.03
2022-10-19T05:09:52.441Z,102937.78
2022-10-19T05:10:24.057Z,102942.91
2022-10-19T05:11:00.021Z,102931.03
2022-10-19T05:11:31.432Z,102944.25
2022-10-19T05:12:07.541Z,102936.72
2022-10-19T05:12:39.251Z,102936.72
2022-10-19T05:13:13.224Z,102935.91
2022-10-19T05:13:47.623Z,102932.13
2022-10-19T05:14:20.547Z,102937.00
2022-10-19T05:14:52.037Z,102936.72
2022-10-19T05:15:23.446Z,102939.94
2022-10-19T05:16:02.833Z,102933.50
2022-10-19T05:16:37.460Z,102932.13
2022-10-19T05:17:08.902Z,102927.53
2022-10-19T05:17:43.244Z,102932.66
2022-10-19T05:18:14.676Z,102932.94
2022-10-19T05:18:50.857Z,102935.06
2022-10-19T05:19:22.336Z,102930.75
2022-10-19T05:19:55.874Z,102934.00
2022-10-19T05:20:27.478Z,102934.53
2022-10-19T05:21:10.817Z,102940.75
2022-10-19T05:21:42.548Z,102942.38
2022-10-19T05:22:16.542Z,102933.75
2022-10-19T05:22:48.086Z,102927.28
2022-10-19T05:23:19.586Z,102932.41
2022-10-19T05:23:52.724Z,102936.44
2022-10-19T05:24:24.163Z,102925.38
2022-10-19T05:24:58.080Z,102934.00
2022-10-19T05:25:29.753Z,102931.06
2022-10-19T05:26:01.423Z,102941.84
2022-10-19T05:26:33.122Z,102931.59
2022-10-19T05:27:04.717Z,102924.91
2022-10-19T05:27:37.662Z,102936.44
2022-10-19T05:28:09.136Z,102929.47
2022-10-19T05:28:41.118Z,102935.91
2022-10-19T05:29:14.022Z,102925.66
2022-10-19T05:29:50.434Z,102934.88
2022-10-19T05:30:22.288Z,102925.16
2022-10-19T05:30:53.930Z,102917.06
2022-10-19T05:31:28.369Z,102928.38
2022-10-19T05:32:00.053Z,102927.59
2022-10-19T05:32:31.737Z,102920.56
2022-10-19T05:33:03.236Z,102914.94
2022-10-19T05:33:37.712Z,102921.94
2022-10-19T05:34:09.869Z,102915.22
2022-10-19T05:34:41.850Z,102919.81
2022-10-19T05:35:13.763Z,102920.34
2022-10-19T05:35:46.190Z,102921.13
2022-10-19T05:36:35.005Z,102925.44
2022-10-19T05:37:06.460Z,102914.41
2022-10-19T05:37:37.887Z,102906.59
2022-10-19T05:38:09.525Z,102913.88
2022-10-19T05:38:41.751Z,102918.72
2022-10-19T05:39:17.133Z,102913.06
2022-10-19T05:39:48.534Z,102918.44
2022-10-19T05:40:19.952Z,102915.78
2022-10-19T05:40:53.552Z,102913.34
2022-10-19T05:41:29.029Z,102906.88
2022-10-19T05:42:00.480Z,102914.97
2022-10-19T05:42:31.892Z,102915.78
2022-10-19T05:43:03.516Z,102915.50
2022-10-19T05:43:35.066Z,102921.69
2022-10-19T05:44:06.755Z,102923.59
2022-10-19T05:45:10.500Z,102923.59
2022-10-19T05:45:41.932Z,102917.94
2022-10-19T05:46:18.182Z,102921.97
2022-10-19T05:46:51.404Z,102931.69
2022-10-19T05:47:26.208Z,102925.75
2022-10-19T05:48:00.216Z,102923.63
2022-10-19T05:48:34.945Z,102929.53
2022-10-19T05:49:06.379Z,102914.72
2022-10-19T05:49:37.836Z,102922.81
2022-10-19T05:50:09.445Z,102928.50
2022-10-19T05:50:42.172Z,102921.47
2022-10-19T05:51:16.242Z,102927.13
2022-10-19T05:51:48.521Z,102926.88
2022-10-19T05:52:19.954Z,102925.50
2022-10-19T05:52:51.502Z,102929.81
2022-10-19T05:53:22.908Z,102931.16
2022-10-19T05:53:55.498Z,102931.16
2022-10-19T05:54:28.507Z,102930.34
2022-10-19T05:55:00.197Z,102927.41
2022-10-19T05:55:35.657Z,102922.25
2022-10-19T05:56:10.880Z,102930.06
2022-10-19T05:56:43.630Z,102929.53
2022-10-19T05:57:15.053Z,102928.75
2022-10-19T05:57:46.653Z,102924.97
2022-10-19T05:58:18.319Z,102924.69
2022-10-19T05:58:50.083Z,102920.91
2022-10-19T05:59:22.300Z,102925.22
2022-10-19T05:59:56.623Z,102919.59
2022-10-19T06:00:28.171Z,102917.69
2022-10-19T06:01:03.694Z,102917.69
2022-10-19T06:01:35.440Z,102929.53
2022-10-19T06:02:07.158Z,102915.81
2022-10-19T06:02:38.613Z,102920.91
2022-10-19T06:03:10.137Z,102916.88
2022-10-19T06:03:41.792Z,102927.94
2022-10-19T06:04:14.952Z,102922.53
2022-10-19T06:04:49.172Z,102923.34
2022-10-19T06:05:22.350Z,102927.13
2022-10-19T06:05:55.045Z,102929.53
2022-10-19T06:06:27.373Z,102924.69
2022-10-19T06:07:00.950Z,102918.75
2022-10-19T06:07:32.880Z,102927.41
2022-10-19T06:08:08.588Z,102932.78
2022-10-19T06:08:40.336Z,102933.34
2022-10-19T06:09:12.379Z,102924.44
2022-10-19T06:09:43.883Z,102919.31
2022-10-19T06:10:15.393Z,102926.31
2022-10-19T06:10:48.003Z,102931.47
2022-10-19T06:11:30.532Z,102924.69
2022-10-19T06:12:03.382Z,102923.09
2022-10-19T06:12:37.729Z,102923.09
2022-10-19T06:13:09.661Z,102922.84
2022-10-19T06:13:45.276Z,102922.03
2022-10-19T06:14:16.998Z,102914.47
2022-10-19T06:14:52.366Z,102915.84
2022-10-19T06:15:23.921Z,102915.53
2022-10-19T06:15:56.848Z,102914.25
2022-10-19T06:16:31.779Z,102912.34
2022-10-19T06:17:03.328Z,102916.13
2022-10-19T06:17:38.071Z,102906.97
2022-10-19T06:18:15.927Z,102915.59
2022-10-19T06:18:47.857Z,102919.38
2022-10-19T06:19:19.550Z,102917.22
2022-10-19T06:19:54.206Z,102911.56
2022-10-19T06:20:28.997Z,102910.75
2022-10-19T06:21:10.056Z,102915.59
2022-10-19T06:21:45.730Z,102922.09
2022-10-19T06:22:18.908Z,102911.84
2022-10-19T06:22:50.559Z,102920.75
2022-10-19T06:23:34.522Z,102918.06
2022-10-19T06:24:11.494Z,102916.97
2022-10-19T06:24:43.125Z,102921.00
2022-10-19T06:25:18.071Z,102918.88
2022-10-19T06:25:57.146Z,102925.06
2022-10-19T06:26:30.320Z,102933.97
2022-10-19T06:27:07.809Z,102931.28
2022-10-19T06:27:42.015Z,102931.28
2022-10-19T06:28:15.885Z,102929.66
2022-10-19T06:28:52.259Z,102932.34
2022-10-19T06:29:26.101Z,102934.78
2022-10-19T06:29:58.945Z,102936.13
2022-10-19T06:30:33.271Z,102937.19
2022-10-19T06:31:09.353Z,102940.44
2022-10-19T06:31:41.186Z,102929.38
2022-10-19T06:32:13.009Z,102932.59
2022-10-19T06:32:45.742Z,102930.72
2022-10-19T06:33:19.993Z,102935.31
2022-10-19T06:33:51.645Z,102937.13